createdAt,value
2017-11-27T00:00:57.449Z,1013.45
2017-11-27T00:01:57.447Z,1013.48
2017-11-27T00:02:57.701Z,1013.46
2017-11-27T00:03:57.446Z,1013.48
2017-11-27T00:04:57.434Z,1013.55
2017-11-27T00:05:57.434Z,1013.48
2017-11-27T00:06:57.430Z,1013.50
2017-11-27T00:07:57.423Z,1013.41
2017-11-27T00:08:57.427Z,1013.43
2017-11-27T00:09:57.416Z,1013.46
2017-11-27T00:10:57.418Z,1013.47
2017-11-27T00:11:57.411Z,1013.48
2017-11-27T00:12:57.410Z,1013.53
2017-11-27T00:13:57.402Z,1013.44
2017-11-27T00:14:57.398Z,1013.51
2017-11-27T00:15:57.401Z,1013.54
2017-11-27T00:16:57.390Z,1013.46
2017-11-27T00:17:57.392Z,1013.46
2017-11-27T00:18:57.385Z,1013.43
2017-11-27T00:19:57.385Z,1013.41
2017-11-27T00:20:57.380Z,1013.44
2017-11-27T00:21:57.376Z,1013.48
2017-11-27T00:22:57.372Z,1013.50
2017-11-27T00:23:57.368Z,1013.49
2017-11-27T00:24:57.371Z,1013.48
2017-11-27T00:25:57.362Z,1013.51
2017-11-27T00:26:57.366Z,1013.55
2017-11-27T00:27:57.358Z,1013.56
2017-11-27T00:28:57.350Z,1013.54
2017-11-27T00:29:57.346Z,1013.54
2017-11-27T00:30:57.344Z,1013.54
2017-11-27T00:31:57.340Z,1013.52
2017-11-27T00:32:57.444Z,1013.50
2017-11-27T00:33:57.337Z,1013.47
2017-11-27T00:34:57.330Z,1013.51
2017-11-27T00:35:57.333Z,1013.47
2017-11-27T00:36:57.323Z,1013.49
2017-11-27T00:37:57.327Z,1013.47
2017-11-27T00:38:57.320Z,1013.48
2017-11-27T00:39:57.320Z,1013.54
2017-11-27T00:40:57.316Z,1013.55
2017-11-27T00:41:57.334Z,1013.57
2017-11-27T00:42:57.297Z,1013.56
2017-11-27T00:43:57.298Z,1013.59
2017-11-27T00:44:57.294Z,1013.60
2017-11-27T00:46:03.068Z,1013.63
2017-11-27T00:46:57.291Z,1013.55
2017-11-27T00:47:57.281Z,1013.56
2017-11-27T00:48:57.275Z,1013.53
2017-11-27T00:49:57.275Z,1013.60
2017-11-27T00:50:57.272Z,1013.57
2017-11-27T00:51:57.267Z,1013.55
2017-11-27T00:52:57.261Z,1013.56
2017-11-27T00:53:57.268Z,1013.58
2017-11-27T00:54:58.074Z,1013.42
2017-11-27T00:55:57.252Z,1013.52
2017-11-27T00:56:57.256Z,1013.53
2017-11-27T00:57:57.251Z,1013.54
2017-11-27T00:58:57.249Z,1013.53
2017-11-27T00:59:57.237Z,1013.48
2017-11-27T01:00:57.233Z,1013.53
2017-11-27T01:01:57.233Z,1013.51
2017-11-27T01:02:57.226Z,1013.50
2017-11-27T01:03:57.220Z,1013.53
2017-11-27T01:04:57.219Z,1013.51
2017-11-27T01:05:57.217Z,1013.51
2017-11-27T01:06:57.216Z,1013.46
2017-11-27T01:07:57.208Z,1013.55
2017-11-27T01:08:57.204Z,1013.56
2017-11-27T01:09:57.233Z,1013.55
2017-11-27T01:10:57.192Z,1013.58
2017-11-27T01:11:57.196Z,1013.56
2017-11-27T01:12:57.186Z,1013.53
2017-11-27T01:13:57.188Z,1013.61
2017-11-27T01:14:57.176Z,1013.58
2017-11-27T01:15:57.174Z,1013.57
2017-11-27T01:16:57.172Z,1013.59
2017-11-27T01:17:57.177Z,1013.57
2017-11-27T01:18:57.169Z,1013.57
2017-11-27T01:19:57.164Z,1013.60
2017-11-27T01:20:57.155Z,1013.57
2017-11-27T01:21:57.156Z,1013.57
2017-11-27T01:22:57.145Z,1013.58
2017-11-27T01:23:57.145Z,1013.58
2017-11-27T01:24:57.157Z,1013.60
2017-11-27T01:25:57.137Z,1013.56
2017-11-27T01:26:57.132Z,1013.54
2017-11-27T01:27:57.130Z,1013.56
2017-11-27T01:28:57.129Z,1013.59
2017-11-27T01:29:57.119Z,1013.59
2017-11-27T01:30:57.114Z,1013.62
2017-11-27T01:31:57.123Z,1013.61
2017-11-27T01:32:57.109Z,1013.62
2017-11-27T01:33:57.104Z,1013.61
2017-11-27T01:34:57.099Z,1013.57
2017-11-27T01:35:57.097Z,1013.60
2017-11-27T01:36:57.091Z,1013.61
2017-11-27T01:37:57.091Z,1013.64
2017-11-27T01:38:57.081Z,1013.60
2017-11-27T01:39:57.085Z,1013.68
2017-11-27T01:40:57.076Z,1013.68
2017-11-27T01:41:57.074Z,1013.66
2017-11-27T01:42:57.074Z,1013.68
2017-11-27T01:43:57.058Z,1013.67
2017-11-27T01:44:57.060Z,1013.73
2017-11-27T01:45:57.059Z,1013.79
2017-11-27T01:46:57.051Z,1013.77
2017-11-27T01:47:57.043Z,1013.78
2017-11-27T01:48:57.043Z,1013.78
2017-11-27T01:49:57.044Z,1013.76
2017-11-27T01:50:57.033Z,1013.75
2017-11-27T01:51:57.028Z,1013.76
2017-11-27T01:52:57.023Z,1013.76
2017-11-27T01:53:57.023Z,1013.70
2017-11-27T01:54:57.016Z,1013.73
2017-11-27T01:55:57.010Z,1013.68
2017-11-27T01:56:57.010Z,1013.68
2017-11-27T01:57:57.002Z,1013.69
2017-11-27T01:58:57.005Z,1013.70
2017-11-27T01:59:56.997Z,1013.70
2017-11-27T02:00:56.992Z,1013.65
2017-11-27T02:01:56.988Z,1013.66
2017-11-27T02:02:56.986Z,1013.63
2017-11-27T02:03:56.983Z,1013.60
2017-11-27T02:04:56.982Z,1013.58
2017-11-27T02:05:56.973Z,1013.58
2017-11-27T02:06:56.970Z,1013.63
2017-11-27T02:07:56.964Z,1013.64
2017-11-27T02:08:56.954Z,1013.69
2017-11-27T02:09:56.954Z,1013.61
2017-11-27T02:10:56.949Z,1013.66
2017-11-27T02:11:56.945Z,1013.61
2017-11-27T02:12:56.944Z,1013.62
2017-11-27T02:13:56.945Z,1013.66
2017-11-27T02:14:56.935Z,1013.65
2017-11-27T02:15:56.930Z,1013.63
2017-11-27T02:16:56.930Z,1013.61
2017-11-27T02:17:56.922Z,1013.56
2017-11-27T02:18:56.912Z,1013.65
2017-11-27T02:19:56.915Z,1013.61
2017-11-27T02:20:56.908Z,1013.62
2017-11-27T02:21:56.913Z,1013.62
2017-11-27T02:22:56.907Z,1013.60
2017-11-27T02:23:56.900Z,1013.56
2017-11-27T02:24:56.890Z,1013.64
2017-11-27T02:25:56.890Z,1013.68
2017-11-27T02:26:56.882Z,1013.61
2017-11-27T02:27:56.880Z,1013.64
2017-11-27T02:28:56.881Z,1013.61
2017-11-27T02:29:56.880Z,1013.56
2017-11-27T02:30:56.867Z,1013.59
2017-11-27T02:31:56.864Z,1013.61
2017-11-27T02:32:56.859Z,1013.65
2017-11-27T02:33:56.871Z,1013.58
2017-11-27T02:34:56.853Z,1013.62
2017-11-27T02:35:56.854Z,1013.58
2017-11-27T02:36:56.843Z,1013.56
2017-11-27T02:37:56.838Z,1013.64
2017-11-27T02:38:56.834Z,1013.61
2017-11-27T02:39:56.832Z,1013.59
2017-11-27T02:40:56.825Z,1013.56
2017-11-27T02:41:56.821Z,1013.56
2017-11-27T02:42:56.819Z,1013.62
2017-11-27T02:43:56.812Z,1013.64
2017-11-27T02:44:56.803Z,1013.70
2017-11-27T02:45:56.808Z,1013.62
2017-11-27T02:46:56.801Z,1013.67
2017-11-27T02:47:56.792Z,1013.66
2017-11-27T02:48:56.789Z,1013.57
2017-11-27T02:49:56.786Z,1013.48
2017-11-27T02:50:56.786Z,1013.52
2017-11-27T02:51:56.780Z,1013.51
2017-11-27T02:52:56.776Z,1013.49
2017-11-27T02:53:56.764Z,1013.48
2017-11-27T02:54:56.763Z,1013.49
2017-11-27T02:55:56.755Z,1013.55
2017-11-27T02:56:56.752Z,1013.55
2017-11-27T02:57:56.756Z,1013.47
2017-11-27T02:58:56.745Z,1013.55
2017-11-27T02:59:56.740Z,1013.59
2017-11-27T03:00:56.735Z,1013.48
2017-11-27T03:01:56.735Z,1013.50
2017-11-27T03:02:56.730Z,1013.52
2017-11-27T03:03:56.726Z,1013.47
2017-11-27T03:04:56.714Z,1013.46
2017-11-27T03:05:56.713Z,1013.46
2017-11-27T03:06:56.715Z,1013.47
2017-11-27T03:07:56.705Z,1013.47
2017-11-27T03:08:56.700Z,1013.48
2017-11-27T03:09:56.699Z,1013.50
2017-11-27T03:10:56.688Z,1013.46
2017-11-27T03:11:56.694Z,1013.43
2017-11-27T03:12:56.679Z,1013.43
2017-11-27T03:13:56.690Z,1013.42
2017-11-27T03:14:56.674Z,1013.48
2017-11-27T03:15:56.669Z,1013.51
2017-11-27T03:16:56.663Z,1013.48
2017-11-27T03:17:56.655Z,1013.52
2017-11-27T03:18:56.662Z,1013.49
2017-11-27T03:19:56.649Z,1013.48
2017-11-27T03:20:56.677Z,1013.41
2017-11-27T03:21:56.718Z,1013.43
2017-11-27T03:22:56.639Z,1013.45
2017-11-27T03:23:56.641Z,1013.43
2017-11-27T03:24:56.628Z,1013.46
2017-11-27T03:25:56.626Z,1013.40
2017-11-27T03:26:56.619Z,1013.42
2017-11-27T03:27:56.616Z,1013.42
2017-11-27T03:28:56.609Z,1013.42
2017-11-27T03:29:56.607Z,1013.36
2017-11-27T03:30:56.601Z,1013.43
2017-11-27T03:31:56.601Z,1013.39
2017-11-27T03:32:56.599Z,1013.35
2017-11-27T03:33:56.592Z,1013.33
2017-11-27T03:34:56.583Z,1013.36
2017-11-27T03:35:56.579Z,1013.32
2017-11-27T03:36:56.574Z,1013.32
2017-11-27T03:37:56.570Z,1013.32
2017-11-27T03:38:56.564Z,1013.34
2017-11-27T03:39:56.559Z,1013.32
2017-11-27T03:40:56.557Z,1013.31
2017-11-27T03:41:56.549Z,1013.32
2017-11-27T03:42:56.544Z,1013.32
2017-11-27T03:43:56.540Z,1013.30
2017-11-27T03:44:56.535Z,1013.32
2017-11-27T03:45:56.528Z,1013.32
2017-11-27T03:46:56.529Z,1013.27
2017-11-27T03:47:56.523Z,1013.29
2017-11-27T03:48:56.522Z,1013.29
2017-11-27T03:49:56.516Z,1013.23
2017-11-27T03:50:56.504Z,1013.24
2017-11-27T03:51:56.501Z,1013.21
2017-11-27T03:52:56.497Z,1013.21
2017-11-27T03:53:56.495Z,1013.20
2017-11-27T03:54:56.493Z,1013.22
2017-11-27T03:55:56.488Z,1013.21
2017-11-27T03:56:56.481Z,1013.18
2017-11-27T03:57:56.474Z,1013.16
2017-11-27T03:58:56.479Z,1013.12
2017-11-27T03:59:56.464Z,1013.12
2017-11-27T04:00:56.465Z,1013.06
2017-11-27T04:01:56.454Z,1013.04
2017-11-27T04:02:56.449Z,1013.04
2017-11-27T04:03:56.445Z,1012.99
2017-11-27T04:04:56.439Z,1013.02
2017-11-27T04:05:56.441Z,1013.06
2017-11-27T04:06:56.431Z,1013.00
2017-11-27T04:07:56.428Z,1012.94
2017-11-27T04:08:56.424Z,1013.02
2017-11-27T04:09:56.418Z,1012.97
2017-11-27T04:10:56.419Z,1012.96
2017-11-27T04:11:56.428Z,1012.95
2017-11-27T04:12:56.410Z,1012.89
2017-11-27T04:13:56.401Z,1012.96
2017-11-27T04:14:56.407Z,1012.94
2017-11-27T04:15:56.386Z,1012.90
2017-11-27T04:16:56.389Z,1012.95
2017-11-27T04:17:56.389Z,1012.86
2017-11-27T04:18:56.378Z,1012.83
2017-11-27T04:19:56.382Z,1012.79
2017-11-27T04:20:56.366Z,1012.82
2017-11-27T04:21:56.361Z,1012.75
2017-11-27T04:22:56.365Z,1012.74
2017-11-27T04:23:56.381Z,1012.72
2017-11-27T04:24:56.353Z,1012.75
2017-11-27T04:25:56.343Z,1012.72
2017-11-27T04:26:56.340Z,1012.72
2017-11-27T04:27:56.334Z,1012.74
2017-11-27T04:28:56.326Z,1012.73
2017-11-27T04:29:56.322Z,1012.72
2017-11-27T04:30:56.318Z,1012.70
2017-11-27T04:31:56.313Z,1012.70
2017-11-27T04:32:56.311Z,1012.64
2017-11-27T04:33:56.313Z,1012.63
2017-11-27T04:34:56.306Z,1012.65
2017-11-27T04:35:56.306Z,1012.65
2017-11-27T04:36:56.295Z,1012.72
2017-11-27T04:37:56.286Z,1012.69
2017-11-27T04:38:56.290Z,1012.64
2017-11-27T04:39:56.282Z,1012.66
2017-11-27T04:40:56.274Z,1012.65
2017-11-27T04:41:56.262Z,1012.66
2017-11-27T04:42:56.266Z,1012.62
2017-11-27T04:43:56.264Z,1012.60
2017-11-27T04:44:56.255Z,1012.61
2017-11-27T04:45:56.249Z,1012.58
2017-11-27T04:46:56.244Z,1012.58
2017-11-27T04:47:56.236Z,1012.65
2017-11-27T04:48:56.234Z,1012.64
2017-11-27T04:49:56.230Z,1012.58
2017-11-27T04:50:56.223Z,1012.56
2017-11-27T04:51:56.240Z,1012.53
2017-11-27T04:52:56.212Z,1012.56
2017-11-27T04:53:56.210Z,1012.49
2017-11-27T04:54:56.211Z,1012.55
2017-11-27T04:55:56.214Z,1012.49
2017-11-27T04:56:56.197Z,1012.50
2017-11-27T04:57:56.188Z,1012.46
2017-11-27T04:58:56.199Z,1012.47
2017-11-27T04:59:56.184Z,1012.49
2017-11-27T05:00:56.182Z,1012.50
2017-11-27T05:01:56.173Z,1012.48
2017-11-27T05:02:56.174Z,1012.42
2017-11-27T05:03:56.165Z,1012.41
2017-11-27T05:04:56.177Z,1012.39
2017-11-27T05:05:56.159Z,1012.39
2017-11-27T05:06:56.153Z,1012.42
2017-11-27T05:07:56.149Z,1012.41
2017-11-27T05:08:56.144Z,1012.42
2017-11-27T05:09:56.139Z,1012.36
2017-11-27T05:10:56.132Z,1012.40
2017-11-27T05:11:56.123Z,1012.37
2017-11-27T05:12:56.119Z,1012.42
2017-11-27T05:13:56.122Z,1012.37
2017-11-27T05:14:56.109Z,1012.40
2017-11-27T05:15:56.109Z,1012.44
2017-11-27T05:16:56.103Z,1012.44
2017-11-27T05:17:56.102Z,1012.51
2017-11-27T05:18:56.092Z,1012.45
2017-11-27T05:19:56.094Z,1012.44
2017-11-27T05:20:56.083Z,1012.47
2017-11-27T05:21:56.086Z,1012.50
2017-11-27T05:22:56.073Z,1012.49
2017-11-27T05:23:56.070Z,1012.47
2017-11-27T05:24:56.062Z,1012.50
2017-11-27T05:25:56.056Z,1012.51
2017-11-27T05:26:56.058Z,1012.49
2017-11-27T05:27:56.053Z,1012.47
2017-11-27T05:28:56.047Z,1012.55
2017-11-27T05:29:56.040Z,1012.46
2017-11-27T05:30:56.036Z,1012.48
2017-11-27T05:31:56.030Z,1012.44
2017-11-27T05:32:56.031Z,1012.46
2017-11-27T05:33:56.026Z,1012.42
2017-11-27T05:34:56.020Z,1012.45
2017-11-27T05:35:56.017Z,1012.44
2017-11-27T05:36:56.005Z,1012.43
2017-11-27T05:37:56.005Z,1012.50
2017-11-27T05:38:55.997Z,1012.41
2017-11-27T05:39:55.994Z,1012.43
2017-11-27T05:40:55.988Z,1012.42
2017-11-27T05:41:55.989Z,1012.40
2017-11-27T05:42:55.980Z,1012.39
2017-11-27T05:43:55.974Z,1012.33
2017-11-27T05:44:55.978Z,1012.33
2017-11-27T05:45:55.964Z,1012.27
2017-11-27T05:46:55.961Z,1012.29
2017-11-27T05:47:55.954Z,1012.22
2017-11-27T05:48:55.953Z,1012.13
2017-11-27T05:49:55.951Z,1012.18
2017-11-27T05:50:55.943Z,1012.14
2017-11-27T05:51:55.942Z,1012.11
2017-11-27T05:52:55.936Z,1012.12
2017-11-27T05:53:55.932Z,1012.18
2017-11-27T05:54:55.926Z,1012.19
2017-11-27T05:55:55.927Z,1012.11
2017-11-27T05:56:55.914Z,1012.13
2017-11-27T05:57:55.906Z,1012.15
2017-11-27T05:58:55.903Z,1012.13
2017-11-27T05:59:55.902Z,1012.13
2017-11-27T06:00:55.905Z,1012.14
2017-11-27T06:01:55.892Z,1012.10
2017-11-27T06:02:55.893Z,1012.11
2017-11-27T06:03:55.885Z,1012.08
2017-11-27T06:04:55.877Z,1012.03
2017-11-27T06:05:55.881Z,1012.09
2017-11-27T06:06:55.875Z,1012.10
2017-11-27T06:07:55.864Z,1012.06
2017-11-27T06:08:55.870Z,1012.08
2017-11-27T06:09:55.862Z,1012.09
2017-11-27T06:10:55.854Z,1012.16
2017-11-27T06:11:55.852Z,1012.12
2017-11-27T06:12:55.846Z,1012.04
2017-11-27T06:13:55.837Z,1011.98
2017-11-27T06:14:55.855Z,1011.96
2017-11-27T06:15:55.835Z,1011.92
2017-11-27T06:16:55.826Z,1011.86
2017-11-27T06:17:55.821Z,1011.95
2017-11-27T06:18:55.821Z,1011.94
2017-11-27T06:19:55.818Z,1011.98
2017-11-27T06:20:55.810Z,1011.95
2017-11-27T06:21:55.804Z,1011.96
2017-11-27T06:22:55.805Z,1011.89
2017-11-27T06:23:55.795Z,1011.90
2017-11-27T06:24:55.795Z,1011.91
2017-11-27T06:25:55.792Z,1011.96
2017-11-27T06:26:55.781Z,1011.93
2017-11-27T06:27:55.785Z,1011.90
2017-11-27T06:28:55.775Z,1011.90
2017-11-27T06:29:55.775Z,1011.93
2017-11-27T06:30:55.777Z,1011.94
2017-11-27T06:31:55.768Z,1011.97
2017-11-27T06:32:55.759Z,1011.95
2017-11-27T06:33:55.757Z,1011.90
2017-11-27T06:34:55.751Z,1011.91
2017-11-27T06:35:55.746Z,1011.92
2017-11-27T06:36:55.746Z,1011.87
2017-11-27T06:37:55.741Z,1011.85
2017-11-27T06:38:55.735Z,1011.83
2017-11-27T06:39:55.729Z,1011.88
2017-11-27T06:40:55.725Z,1011.87
2017-11-27T06:41:55.728Z,1011.90
2017-11-27T06:42:55.715Z,1011.84
2017-11-27T06:43:55.717Z,1011.82
2017-11-27T06:44:55.710Z,1011.80
2017-11-27T06:45:55.705Z,1011.82
2017-11-27T06:46:55.708Z,1011.85
2017-11-27T06:47:55.705Z,1011.82
2017-11-27T06:48:55.695Z,1011.80
2017-11-27T06:49:55.685Z,1011.79
2017-11-27T06:50:55.686Z,1011.82
2017-11-27T06:51:55.686Z,1011.79
2017-11-27T06:52:55.677Z,1011.83
2017-11-27T06:53:55.667Z,1011.80
2017-11-27T06:54:55.668Z,1011.80
2017-11-27T06:55:55.666Z,1011.76
2017-11-27T06:56:55.655Z,1011.76
2017-11-27T06:57:55.653Z,1011.74
2017-11-27T06:58:55.651Z,1011.79
2017-11-27T06:59:55.652Z,1011.78
2017-11-27T07:00:55.649Z,1011.77
2017-11-27T07:01:55.641Z,1011.73
2017-11-27T07:02:55.642Z,1011.71
2017-11-27T07:03:55.633Z,1011.74
2017-11-27T07:04:55.624Z,1011.75
2017-11-27T07:05:55.625Z,1011.71
2017-11-27T07:06:55.621Z,1011.66
2017-11-27T07:07:55.622Z,1011.62
2017-11-27T07:08:55.615Z,1011.60
2017-11-27T07:09:55.606Z,1011.64
2017-11-27T07:10:55.603Z,1011.64
2017-11-27T07:11:55.602Z,1011.66
2017-11-27T07:12:55.596Z,1011.69
2017-11-27T07:13:55.604Z,1011.69
2017-11-27T07:14:55.587Z,1011.59
2017-11-27T07:15:55.585Z,1011.64
2017-11-27T07:16:55.577Z,1011.59
2017-11-27T07:17:55.578Z,1011.55
2017-11-27T07:18:55.579Z,1011.54
2017-11-27T07:19:55.565Z,1011.51
2017-11-27T07:20:55.565Z,1011.48
2017-11-27T07:21:55.559Z,1011.44
2017-11-27T07:22:55.563Z,1011.44
2017-11-27T07:23:55.556Z,1011.41
2017-11-27T07:24:55.564Z,1011.35
2017-11-27T07:25:55.541Z,1011.41
2017-11-27T07:26:55.539Z,1011.35
2017-11-27T07:27:55.545Z,1011.36
2017-11-27T07:28:55.532Z,1011.30
2017-11-27T07:29:55.526Z,1011.33
2017-11-27T07:30:55.524Z,1011.29
2017-11-27T07:31:55.521Z,1011.34
2017-11-27T07:32:55.515Z,1011.34
2017-11-27T07:33:55.513Z,1011.35
2017-11-27T07:34:55.507Z,1011.34
2017-11-27T07:35:55.509Z,1011.27
2017-11-27T07:36:55.511Z,1011.31
2017-11-27T07:37:55.495Z,1011.27
2017-11-27T07:38:55.491Z,1011.31
2017-11-27T07:39:55.496Z,1011.22
2017-11-27T07:40:55.496Z,1011.22
2017-11-27T07:41:55.485Z,1011.22
2017-11-27T07:42:55.480Z,1011.24
2017-11-27T07:43:55.480Z,1011.20
2017-11-27T07:44:55.470Z,1011.22
2017-11-27T07:45:55.466Z,1011.24
2017-11-27T07:46:55.460Z,1011.22
2017-11-27T07:47:55.461Z,1011.16
2017-11-27T07:48:55.459Z,1011.17
2017-11-27T07:49:55.454Z,1011.12
2017-11-27T07:50:55.446Z,1011.15
2017-11-27T07:51:55.442Z,1011.13
2017-11-27T07:52:55.444Z,1011.19
2017-11-27T07:53:55.444Z,1011.13
2017-11-27T07:54:55.442Z,1011.13
2017-11-27T07:55:55.433Z,1011.10
2017-11-27T07:56:55.424Z,1011.08
2017-11-27T07:57:55.424Z,1011.10
2017-11-27T07:58:55.419Z,1011.04
2017-11-27T07:59:55.415Z,1011.07
2017-11-27T08:00:55.415Z,1011.01
2017-11-27T08:01:55.428Z,1011.01
2017-11-27T08:02:55.405Z,1010.98
2017-11-27T08:03:55.399Z,1010.98
2017-11-27T08:04:56.154Z,1010.95
2017-11-27T08:05:55.394Z,1010.91
2017-11-27T08:06:55.388Z,1010.96
2017-11-27T08:07:55.386Z,1010.92
2017-11-27T08:08:55.383Z,1010.96
2017-11-27T08:09:55.382Z,1010.90
2017-11-27T08:10:55.371Z,1010.90
2017-11-27T08:11:55.371Z,1010.92
2017-11-27T08:12:55.365Z,1010.91
2017-11-27T08:13:55.362Z,1010.93
2017-11-27T08:14:55.364Z,1010.86
2017-11-27T08:15:55.353Z,1010.87
2017-11-27T08:16:55.353Z,1010.76
2017-11-27T08:17:55.353Z,1010.76
2017-11-27T08:18:55.347Z,1010.78
2017-11-27T08:19:55.339Z,1010.80
2017-11-27T08:20:55.347Z,1010.71
2017-11-27T08:21:55.336Z,1010.66
2017-11-27T08:22:55.333Z,1010.59
2017-11-27T08:23:55.332Z,1010.60
2017-11-27T08:24:55.324Z,1010.57
2017-11-27T08:25:55.324Z,1010.62
2017-11-27T08:26:55.318Z,1010.55
2017-11-27T08:27:55.315Z,1010.56
2017-11-27T08:28:55.374Z,1010.48
2017-11-27T08:29:55.307Z,1010.45
2017-11-27T08:30:55.307Z,1010.46
2017-11-27T08:31:55.305Z,1010.44
2017-11-27T08:32:55.296Z,1010.47
2017-11-27T08:33:55.294Z,1010.47
2017-11-27T08:34:55.291Z,1010.46
2017-11-27T08:35:55.287Z,1010.45
2017-11-27T08:36:55.286Z,1010.43
2017-11-27T08:37:55.277Z,1010.42
2017-11-27T08:38:55.281Z,1010.38
2017-11-27T08:39:55.270Z,1010.42
2017-11-27T08:40:55.268Z,1010.41
2017-11-27T08:41:55.265Z,1010.31
2017-11-27T08:42:55.257Z,1010.37
2017-11-27T08:43:55.269Z,1010.31
2017-11-27T08:44:55.253Z,1010.27
2017-11-27T08:45:55.249Z,1010.29
2017-11-27T08:46:55.247Z,1010.29
2017-11-27T08:47:55.249Z,1010.21
2017-11-27T08:48:55.245Z,1010.22
2017-11-27T08:49:55.239Z,1010.14
2017-11-27T08:50:55.242Z,1010.17
2017-11-27T08:51:55.235Z,1010.17
2017-11-27T08:52:55.232Z,1010.13
2017-11-27T08:53:55.225Z,1010.13
2017-11-27T08:54:55.223Z,1010.12
2017-11-27T08:55:55.260Z,1010.10
2017-11-27T08:56:55.217Z,1010.08
2017-11-27T08:57:55.213Z,1010.08
2017-11-27T08:58:55.242Z,1010.07
2017-11-27T08:59:55.208Z,1010.05
2017-11-27T09:00:55.201Z,1010.02
2017-11-27T09:01:55.204Z,1009.99
2017-11-27T09:02:55.200Z,1009.91
2017-11-27T09:03:55.193Z,1009.93
2017-11-27T09:04:55.196Z,1009.90
2017-11-27T09:05:55.196Z,1009.83
2017-11-27T09:06:55.183Z,1009.86
2017-11-27T09:07:55.185Z,1009.83
2017-11-27T09:08:55.180Z,1009.84
2017-11-27T09:09:55.184Z,1009.81
2017-11-27T09:10:55.170Z,1009.84
2017-11-27T09:11:55.175Z,1009.78
2017-11-27T09:12:55.165Z,1009.83
2017-11-27T09:13:55.161Z,1009.77
2017-11-27T09:14:55.163Z,1009.84
2017-11-27T09:15:55.163Z,1009.78
2017-11-27T09:16:55.152Z,1009.77
2017-11-27T09:17:56.356Z,1009.75
2017-11-27T09:18:55.151Z,1009.74
2017-11-27T09:19:55.148Z,1009.73
2017-11-27T09:20:55.142Z,1009.65
2017-11-27T09:21:55.143Z,1009.71
2017-11-27T09:22:55.153Z,1009.67
2017-11-27T09:23:55.131Z,1009.67
2017-11-27T09:24:55.129Z,1009.60
2017-11-27T09:25:55.134Z,1009.62
2017-11-27T09:26:55.127Z,1009.56
2017-11-27T09:27:55.129Z,1009.63
2017-11-27T09:28:55.130Z,1009.56
2017-11-27T09:29:55.112Z,1009.57
2017-11-27T09:30:55.122Z,1009.57
2017-11-27T09:31:55.253Z,1009.52
2017-11-27T09:32:55.112Z,1009.46
2017-11-27T09:33:55.105Z,1009.48
2017-11-27T09:34:55.104Z,1009.43
2017-11-27T09:35:55.099Z,1009.41
2017-11-27T09:36:55.098Z,1009.37
2017-11-27T09:37:55.088Z,1009.27
2017-11-27T09:38:55.089Z,1009.29
2017-11-27T09:39:55.084Z,1009.26
2017-11-27T09:40:55.093Z,1009.22
2017-11-27T09:41:55.079Z,1009.20
2017-11-27T09:42:55.078Z,1009.14
2017-11-27T09:43:55.074Z,1009.12
2017-11-27T09:44:55.075Z,1009.08
2017-11-27T09:45:55.068Z,1009.10
2017-11-27T09:46:55.067Z,1009.05
2017-11-27T09:47:55.067Z,1009.04
2017-11-27T09:48:55.058Z,1009.04
2017-11-27T09:49:55.065Z,1009.03
2017-11-27T09:50:55.060Z,1008.99
2017-11-27T09:51:55.052Z,1008.99
2017-11-27T09:52:55.050Z,1008.96
2017-11-27T09:53:55.043Z,1008.94
2017-11-27T09:54:55.044Z,1008.97
2017-11-27T09:55:55.038Z,1008.94
2017-11-27T09:56:55.035Z,1008.91
2017-11-27T09:57:55.038Z,1008.86
2017-11-27T09:58:55.039Z,1008.84
2017-11-27T09:59:55.027Z,1008.75
2017-11-27T10:00:55.031Z,1008.75
2017-11-27T10:01:55.034Z,1008.66
2017-11-27T10:02:55.023Z,1008.70
2017-11-27T10:03:55.023Z,1008.64
2017-11-27T10:04:55.018Z,1008.63
2017-11-27T10:05:55.026Z,1008.62
2017-11-27T10:06:55.007Z,1008.62
2017-11-27T10:07:55.022Z,1008.58
2017-11-27T10:08:55.009Z,1008.54
2017-11-27T10:09:55.000Z,1008.54
2017-11-27T10:10:55.002Z,1008.53
2017-11-27T10:11:54.992Z,1008.44
2017-11-27T10:12:54.993Z,1008.43
2017-11-27T10:13:54.988Z,1008.42
2017-11-27T10:14:54.985Z,1008.36
2017-11-27T10:15:54.997Z,1008.33
2017-11-27T10:16:54.982Z,1008.33
2017-11-27T10:17:54.980Z,1008.27
2017-11-27T10:18:54.978Z,1008.26
2017-11-27T10:19:54.976Z,1008.21
2017-11-27T10:20:55.001Z,1008.22
2017-11-27T10:21:54.965Z,1008.16
2017-11-27T10:22:54.974Z,1008.16
2017-11-27T10:23:54.964Z,1008.14
2017-11-27T10:24:54.966Z,1008.12
2017-11-27T10:25:54.957Z,1008.10
2017-11-27T10:26:54.952Z,1008.07
2017-11-27T10:27:54.982Z,1008.03
2017-11-27T10:28:54.947Z,1007.99
2017-11-27T10:29:54.950Z,1007.99
2017-11-27T10:30:54.953Z,1008.02
2017-11-27T10:31:54.939Z,1007.91
2017-11-27T10:32:54.937Z,1007.93
2017-11-27T10:33:54.934Z,1007.93
2017-11-27T10:34:55.028Z,1007.85
2017-11-27T10:35:54.933Z,1007.86
2017-11-27T10:36:54.926Z,1007.87
2017-11-27T10:37:54.924Z,1007.81
2017-11-27T10:38:54.927Z,1007.82
2017-11-27T10:39:54.921Z,1007.76
2017-11-27T10:40:54.915Z,1007.75
2017-11-27T10:41:54.912Z,1007.68
2017-11-27T10:42:54.914Z,1007.67
2017-11-27T10:43:54.905Z,1007.66
2017-11-27T10:44:54.908Z,1007.64
2017-11-27T10:45:54.917Z,1007.57
2017-11-27T10:46:54.906Z,1007.54
2017-11-27T10:47:54.894Z,1007.52
2017-11-27T10:48:54.892Z,1007.47
2017-11-27T10:49:54.896Z,1007.47
2017-11-27T10:50:54.887Z,1007.44
2017-11-27T10:51:54.890Z,1007.41
2017-11-27T10:52:54.889Z,1007.36
2017-11-27T10:53:54.885Z,1007.30
2017-11-27T10:54:54.877Z,1007.30
2017-11-27T10:55:54.877Z,1007.27
2017-11-27T10:56:54.876Z,1007.27
2017-11-27T10:57:54.870Z,1007.21
2017-11-27T10:58:54.868Z,1007.20
2017-11-27T10:59:54.869Z,1007.19
2017-11-27T11:00:54.869Z,1007.18
2017-11-27T11:01:54.859Z,1007.15
2017-11-27T11:02:54.857Z,1007.16
2017-11-27T11:03:54.859Z,1007.15
2017-11-27T11:04:54.850Z,1007.11
2017-11-27T11:05:54.846Z,1007.05
2017-11-27T11:06:54.847Z,1007.09
2017-11-27T11:07:54.842Z,1007.04
2017-11-27T11:08:56.582Z,1006.96
2017-11-27T11:09:54.839Z,1006.98
2017-11-27T11:10:54.838Z,1007.05
2017-11-27T11:11:54.836Z,1006.91
2017-11-27T11:12:54.833Z,1006.89
2017-11-27T11:13:54.837Z,1006.86
2017-11-27T11:14:54.825Z,1006.82
2017-11-27T11:15:54.825Z,1006.84
2017-11-27T11:16:54.817Z,1006.81
2017-11-27T11:17:54.817Z,1006.75
2017-11-27T11:18:54.817Z,1006.71
2017-11-27T11:19:54.813Z,1006.73
2017-11-27T11:20:54.805Z,1006.68
2017-11-27T11:21:54.804Z,1006.69
2017-11-27T11:22:54.802Z,1006.60
2017-11-27T11:23:54.801Z,1006.55
2017-11-27T11:24:54.796Z,1006.55
2017-11-27T11:25:54.797Z,1006.54
2017-11-27T11:26:54.795Z,1006.48
2017-11-27T11:27:54.793Z,1006.50
2017-11-27T11:28:54.785Z,1006.48
2017-11-27T11:29:54.782Z,1006.45
2017-11-27T11:30:54.781Z,1006.39
2017-11-27T11:31:54.779Z,1006.43
2017-11-27T11:32:54.772Z,1006.29
2017-11-27T11:33:54.773Z,1006.28
2017-11-27T11:34:54.772Z,1006.30
2017-11-27T11:35:54.765Z,1006.22
2017-11-27T11:36:54.767Z,1006.24
2017-11-27T11:37:54.764Z,1006.24
2017-11-27T11:38:54.756Z,1006.21
2017-11-27T11:39:54.753Z,1006.16
2017-11-27T11:40:54.762Z,1006.06
2017-11-27T11:41:54.749Z,1006.08
2017-11-27T11:42:54.750Z,1006.08
2017-11-27T11:43:54.741Z,1006.09
2017-11-27T11:44:54.740Z,1006.03
2017-11-27T11:45:54.736Z,1006.01
2017-11-27T11:46:54.731Z,1005.97
2017-11-27T11:47:54.745Z,1005.98
2017-11-27T11:48:54.729Z,1005.97
2017-11-27T11:49:54.725Z,1005.87
2017-11-27T11:50:54.719Z,1005.90
2017-11-27T11:51:54.724Z,1005.86
2017-11-27T11:52:54.714Z,1005.82
2017-11-27T11:53:54.712Z,1005.80
2017-11-27T11:54:54.712Z,1005.76
2017-11-27T11:55:54.713Z,1005.70
2017-11-27T11:56:54.704Z,1005.64
2017-11-27T11:57:54.706Z,1005.72
2017-11-27T11:58:54.698Z,1005.67
2017-11-27T11:59:54.694Z,1005.68
2017-11-27T12:00:54.696Z,1005.62
2017-11-27T12:01:54.691Z,1005.56
2017-11-27T12:02:54.687Z,1005.60
2017-11-27T12:03:54.686Z,1005.54
2017-11-27T12:04:54.683Z,1005.52
2017-11-27T12:05:54.677Z,1005.43